ブリスベン の空港の天気 - METARとTAF

ブリスベン空港 ( YBBN / BNE ) - オーストラリア クイーンズランド州ブリスベン
飛行場実況気象(Metar)
観測時間04/26 00:30 AEST (04/25 14:30 UTC)
風向・風速南南西 3m/s
視程10km以上
天気現象
なし
気温20℃
湿度88%
気圧1013hPa
METARYBBN 251430Z 21005KT CAVOK 20/18 Q1013 NOSIG
過去の天気等 Google飛行場航空写真 Wunderground天気予報

過去48時間のMETAR

飛行場予報(TAF)
発表時間: 4/25 21:26 AEST (4/25 11:26 UTC)
予報対象時間: 25日22時 AEST ~ 27日4時 AEST
風向・風速不定 3m/s
視程10km以上
少しの雲 雲底高度 910m
26日1時 AEST から
風向・風速南西 3m/s
視程10km以上
少しの雲 雲底高度 910m
26日14時 AEST から
風向・風速東北東 4m/s
視程10km以上
全天の4割程度の雲 雲底高度 1,370m
26日18時 AEST から
風向・風速東南東 3m/s
視程10km以上
少しの雲 雲底高度 910m
26日21時 AEST から
風向・風速南南西 3m/s
視程10km以上
少しの雲 雲底高度 910m
TAF YBBN 251126Z 2512/2618 VRB05KT 9999 FEW030
FM251500 22005KT 9999 FEW030
FM260400 07008KT 9999 SCT045
FM260800 12005KT 9999 FEW030
FM261100 20005KT 9999 FEW030